createdAt,value
2024-01-07T00:01:47.938Z,4.18
2024-01-07T00:04:17.496Z,4.19
2024-01-07T00:06:44.840Z,4.19
2024-01-07T00:09:12.401Z,4.25
2024-01-07T00:11:39.765Z,4.24
2024-01-07T00:14:07.081Z,4.25
2024-01-07T00:16:34.381Z,4.11
2024-01-07T00:19:01.769Z,4.16
2024-01-07T00:21:30.582Z,4.19
2024-01-07T00:23:57.861Z,4.26
2024-01-07T00:26:25.128Z,4.19
2024-01-07T00:28:52.423Z,4.18
2024-01-07T00:31:19.788Z,4.13
2024-01-07T00:33:47.246Z,4.11
2024-01-07T00:36:14.549Z,4.08
2024-01-07T00:38:43.231Z,4.14
2024-01-07T00:41:10.519Z,4.17
2024-01-07T00:43:37.794Z,4.20
2024-01-07T00:46:05.552Z,4.03
2024-01-07T00:48:33.255Z,4.03
2024-01-07T00:51:01.305Z,4.07
2024-01-07T00:53:28.556Z,4.09
2024-01-07T00:55:58.237Z,4.05
2024-01-07T00:58:25.538Z,4.12
2024-01-07T01:00:52.853Z,4.14
2024-01-07T01:03:20.294Z,4.16
2024-01-07T01:05:47.801Z,4.15
2024-01-07T01:08:15.116Z,4.16
2024-01-07T01:10:43.879Z,4.02
2024-01-07T01:13:12.594Z,4.04
2024-01-07T01:15:39.975Z,4.06
2024-01-07T01:18:07.362Z,4.05
2024-01-07T01:20:34.695Z,4.05
2024-01-07T01:23:02.025Z,4.05
2024-01-07T01:25:29.304Z,4.07
2024-01-07T01:27:57.130Z,4.11
2024-01-07T01:30:25.928Z,4.15
2024-01-07T01:32:53.451Z,4.11
2024-01-07T01:35:20.789Z,4.02
2024-01-07T01:37:48.053Z,3.91
2024-01-07T01:40:17.330Z,3.87
2024-01-07T01:42:45.109Z,4.02
2024-01-07T01:45:12.447Z,4.07
2024-01-07T01:47:41.398Z,3.98
2024-01-07T01:50:09.407Z,3.96
2024-01-07T01:52:36.794Z,3.92
2024-01-07T01:55:05.212Z,3.92
2024-01-07T01:57:35.058Z,3.89
2024-01-07T02:00:03.916Z,3.86
2024-01-07T02:02:32.880Z,3.81
2024-01-07T02:05:01.740Z,3.85
2024-01-07T02:07:31.257Z,3.89
2024-01-07T02:09:58.649Z,3.84
2024-01-07T02:12:26.070Z,3.83
2024-01-07T02:14:53.372Z,3.88
2024-01-07T02:17:21.175Z,3.81
2024-01-07T02:19:48.945Z,3.92
2024-01-07T02:22:17.768Z,3.89
2024-01-07T02:24:46.456Z,3.82
2024-01-07T02:27:13.800Z,3.93
2024-01-07T02:29:41.101Z,3.86
2024-01-07T02:32:09.174Z,3.82
2024-01-07T02:34:36.496Z,3.86
2024-01-07T02:37:04.267Z,3.81
2024-01-07T02:39:31.654Z,3.81
2024-01-07T02:42:00.340Z,3.88
2024-01-07T02:44:27.627Z,3.84
2024-01-07T02:46:54.940Z,3.77
2024-01-07T02:49:22.336Z,3.71
2024-01-07T02:51:49.679Z,3.71
2024-01-07T02:54:17.286Z,3.64
2024-01-07T02:56:44.536Z,3.62
2024-01-07T02:59:13.255Z,3.54
2024-01-07T03:01:40.601Z,3.61
2024-01-07T03:04:08.341Z,3.54
2024-01-07T03:06:35.696Z,3.53
2024-01-07T03:09:03.164Z,3.51
2024-01-07T03:11:30.678Z,3.54
2024-01-07T03:13:58.077Z,3.50
2024-01-07T03:16:27.374Z,3.50
2024-01-07T03:18:54.734Z,3.34
2024-01-07T03:21:23.796Z,3.38
2024-01-07T03:23:52.330Z,3.50
2024-01-07T03:26:20.748Z,3.42
2024-01-07T03:28:48.173Z,3.36
2024-01-07T03:31:17.190Z,3.36
2024-01-07T03:33:46.178Z,3.35
2024-01-07T03:36:14.993Z,3.26
2024-01-07T03:38:42.573Z,3.17
2024-01-07T03:41:09.904Z,3.24
2024-01-07T03:43:37.185Z,3.23
2024-01-07T03:46:04.596Z,3.10
2024-01-07T03:48:32.091Z,3.20
2024-01-07T03:51:00.805Z,3.16
2024-01-07T03:53:28.080Z,3.09
2024-01-07T03:55:55.359Z,3.09
2024-01-07T03:58:22.630Z,2.94
2024-01-07T04:00:50.001Z,3.03
2024-01-07T04:03:17.558Z,3.08
2024-01-07T04:05:45.130Z,3.02
2024-01-07T04:08:13.847Z,2.92
2024-01-07T04:10:41.122Z,2.98
2024-01-07T04:13:08.551Z,2.95
2024-01-07T04:15:35.912Z,2.90
2024-01-07T04:18:03.407Z,2.90
2024-01-07T04:20:30.705Z,2.75
2024-01-07T04:22:58.181Z,2.65
2024-01-07T04:25:26.878Z,2.63
2024-01-07T04:27:54.210Z,2.58
2024-01-07T04:30:21.584Z,2.54
2024-01-07T04:32:48.981Z,2.47
2024-01-07T04:35:16.328Z,2.41
2024-01-07T04:37:43.676Z,2.47
2024-01-07T04:40:12.236Z,2.46
2024-01-07T04:42:40.976Z,2.55
2024-01-07T04:45:08.937Z,2.46
2024-01-07T04:47:36.248Z,2.49
2024-01-07T04:50:04.685Z,2.57
2024-01-07T04:52:31.977Z,2.54
2024-01-07T04:54:59.397Z,2.53
2024-01-07T04:57:26.761Z,2.50
2024-01-07T04:59:55.554Z,2.43
2024-01-07T05:02:22.833Z,2.28
2024-01-07T05:04:50.091Z,2.36
2024-01-07T05:07:17.493Z,2.29
2024-01-07T05:09:44.861Z,2.24
2024-01-07T05:12:12.226Z,2.12
2024-01-07T05:14:39.509Z,2.10
2024-01-07T05:17:08.174Z,1.98
2024-01-07T05:19:35.521Z,1.87
2024-01-07T05:22:02.908Z,1.81
2024-01-07T05:24:31.758Z,1.79
2024-01-07T05:27:00.237Z,1.80
2024-01-07T05:29:27.511Z,1.74
2024-01-07T05:31:54.786Z,1.77
2024-01-07T05:34:23.562Z,1.71
2024-01-07T05:36:50.988Z,1.66
2024-01-07T05:39:18.250Z,1.65
2024-01-07T05:41:45.517Z,1.65
2024-01-07T05:44:13.372Z,1.77
2024-01-07T05:46:40.975Z,1.65
2024-01-07T05:49:09.325Z,1.74
2024-01-07T05:51:41.173Z,1.71
2024-01-07T05:54:08.613Z,1.71
2024-01-07T05:56:39.812Z,1.73
2024-01-07T05:59:07.270Z,1.79
2024-01-07T06:01:34.711Z,1.65
2024-01-07T06:04:02.063Z,1.69
2024-01-07T06:06:29.641Z,1.59
2024-01-07T06:08:58.486Z,1.64
2024-01-07T06:11:25.768Z,1.63
2024-01-07T06:13:53.031Z,1.54
2024-01-07T06:16:20.309Z,1.56
2024-01-07T06:18:47.712Z,1.54
2024-01-07T06:21:15.112Z,1.54
2024-01-07T06:23:42.369Z,1.43
2024-01-07T06:26:11.014Z,1.44
2024-01-07T06:28:38.363Z,1.50
2024-01-07T06:31:05.839Z,1.42
2024-01-07T06:33:33.483Z,1.52
2024-01-07T06:36:01.275Z,1.55
2024-01-07T06:38:28.551Z,1.41
2024-01-07T06:40:58.508Z,1.49
2024-01-07T06:43:29.006Z,1.60
2024-01-07T06:45:56.669Z,1.59
2024-01-07T06:48:24.037Z,1.49
2024-01-07T06:50:51.376Z,1.50
2024-01-07T06:53:18.778Z,1.40
2024-01-07T06:55:46.084Z,1.42
2024-01-07T06:58:13.404Z,1.43
2024-01-07T07:00:42.180Z,1.37
2024-01-07T07:03:09.776Z,1.40
2024-01-07T07:05:37.126Z,1.35
2024-01-07T07:08:05.040Z,1.27
2024-01-07T07:10:32.314Z,1.26
2024-01-07T07:12:59.633Z,1.38
2024-01-07T07:15:26.965Z,1.35
2024-01-07T07:17:56.006Z,1.24
2024-01-07T07:20:23.360Z,1.16
2024-01-07T07:22:50.620Z,1.13
2024-01-07T07:25:17.953Z,1.04
2024-01-07T07:27:45.364Z,0.98
2024-01-07T07:30:12.974Z,0.95
2024-01-07T07:32:40.965Z,0.80
2024-01-07T07:35:09.836Z,0.87
2024-01-07T07:37:37.128Z,0.92
2024-01-07T07:40:05.389Z,0.86
2024-01-07T07:42:32.817Z,0.88
2024-01-07T07:45:00.222Z,0.82
2024-01-07T07:47:27.624Z,0.90
2024-01-07T07:49:55.042Z,0.89
2024-01-07T07:52:23.781Z,0.84
2024-01-07T07:54:51.148Z,0.73
2024-01-07T07:57:18.580Z,0.85
2024-01-07T07:59:45.869Z,0.94
2024-01-07T08:02:13.557Z,0.90
2024-01-07T08:04:40.860Z,0.85
2024-01-07T08:07:08.285Z,0.94
2024-01-07T08:09:37.219Z,0.84
2024-01-07T08:12:05.474Z,0.71
2024-01-07T08:14:33.510Z,0.81
2024-01-07T08:17:00.787Z,0.83
2024-01-07T08:19:28.149Z,0.80
2024-01-07T08:21:55.469Z,0.76
2024-01-07T08:24:22.746Z,0.73
2024-01-07T08:26:51.423Z,0.62
2024-01-07T08:29:18.761Z,0.62
2024-01-07T08:31:46.139Z,0.71
2024-01-07T08:34:13.544Z,0.62
2024-01-07T08:36:40.881Z,0.68
2024-01-07T08:39:08.275Z,0.65
2024-01-07T08:41:35.530Z,0.57
2024-01-07T08:44:04.356Z,0.62
2024-01-07T08:46:31.628Z,0.75
2024-01-07T08:48:59.070Z,0.79
2024-01-07T08:51:26.874Z,0.78
2024-01-07T08:54:31.381Z,0.71
2024-01-07T08:57:01.577Z,0.70
2024-01-07T08:59:30.143Z,0.61
2024-01-07T09:01:57.420Z,0.57
2024-01-07T09:04:24.753Z,0.61
2024-01-07T09:06:52.036Z,0.55
2024-01-07T09:09:19.335Z,0.47
2024-01-07T09:11:46.666Z,0.44
2024-01-07T09:14:13.983Z,0.36
2024-01-07T09:16:42.622Z,0.41
2024-01-07T09:19:11.591Z,0.28
2024-01-07T09:21:40.940Z,0.36
2024-01-07T09:24:08.335Z,0.34
2024-01-07T09:26:35.668Z,0.36
2024-01-07T09:29:02.964Z,0.40
2024-01-07T09:31:30.363Z,0.37
2024-01-07T09:33:59.133Z,0.42
2024-01-07T09:36:30.289Z,0.45
2024-01-07T09:38:58.353Z,0.35
2024-01-07T09:41:26.306Z,0.18
2024-01-07T09:43:54.002Z,0.32
